createdAt,value
2023-01-25T00:00:27.504Z,26.33
2023-01-25T00:05:29.163Z,26.42
2023-01-25T00:10:30.807Z,26.13
2023-01-25T00:15:32.395Z,32.80
2023-01-25T00:20:33.902Z,29.13
2023-01-25T00:25:35.668Z,28.17
2023-01-25T00:30:39.359Z,30.15
2023-01-25T00:35:40.910Z,26.38
2023-01-25T00:40:42.442Z,29.40
2023-01-25T00:45:43.996Z,27.80
2023-01-25T00:50:45.555Z,27.98
2023-01-25T00:55:53.851Z,28.60
2023-01-25T01:00:56.572Z,31.40
2023-01-25T01:06:03.723Z,28.23
2023-01-25T01:11:07.701Z,32.72
2023-01-25T01:16:12.417Z,31.77
2023-01-25T01:21:14.788Z,31.05
2023-01-25T01:26:21.295Z,32.47
2023-01-25T01:31:24.174Z,29.95
2023-01-25T01:36:37.556Z,30.60
2023-01-25T01:41:40.053Z,29.20
2023-01-25T01:46:51.582Z,33.83
2023-01-25T01:52:12.076Z,33.97
2023-01-25T01:57:20.055Z,31.13
2023-01-25T02:02:25.031Z,29.05
2023-01-25T02:07:35.356Z,32.85
2023-01-25T02:12:39.510Z,31.35
2023-01-25T02:17:42.795Z,30.65
2023-01-25T02:23:24.330Z,31.90
2023-01-25T02:28:31.658Z,28.92
2023-01-25T02:33:33.301Z,29.05
2023-01-25T02:38:57.814Z,29.95
2023-01-25T02:44:01.972Z,30.13
2023-01-25T02:49:06.721Z,32.03
2023-01-25T02:54:11.147Z,31.65
2023-01-25T02:59:13.514Z,33.58
2023-01-25T03:04:17.710Z,33.58
2023-01-25T03:09:19.279Z,31.90
2023-01-25T03:14:25.751Z,33.15
2023-01-25T03:19:28.242Z,32.78
2023-01-25T03:24:30.086Z,32.28
2023-01-25T03:29:33.520Z,35.30
2023-01-25T03:34:36.192Z,36.63
2023-01-25T03:39:38.073Z,31.60
2023-01-25T03:44:39.710Z,33.55
2023-01-25T03:49:41.466Z,36.15
2023-01-25T03:54:44.273Z,35.03
2023-01-25T03:59:48.344Z,37.25
2023-01-25T04:04:50.045Z,38.38
2023-01-25T04:09:56.347Z,37.22
2023-01-25T04:15:00.684Z,36.47
2023-01-25T04:20:02.476Z,39.75
2023-01-25T04:25:10.932Z,37.53
2023-01-25T04:30:18.802Z,35.70
2023-01-25T04:35:22.761Z,41.33
2023-01-25T04:40:24.618Z,39.85
2023-01-25T04:45:29.170Z,38.55
2023-01-25T04:50:32.027Z,41.30
2023-01-25T04:55:35.229Z,39.92
2023-01-25T05:00:37.573Z,35.85
2023-01-25T05:05:43.178Z,31.65
2023-01-25T05:10:46.262Z,40.42
2023-01-25T05:16:09.037Z,33.65
2023-01-25T05:21:31.035Z,35.35
2023-01-25T05:26:51.243Z,33.05
2023-01-25T05:31:52.920Z,34.22
2023-01-25T05:36:54.675Z,31.27
2023-01-25T05:41:59.406Z,30.75
2023-01-25T05:47:01.940Z,34.58
2023-01-25T05:52:03.809Z,34.78
2023-01-25T05:57:06.315Z,34.53
2023-01-25T06:02:09.314Z,31.35
2023-01-25T06:07:11.095Z,36.83
2023-01-25T06:12:12.872Z,34.97
2023-01-25T06:17:14.479Z,37.05
2023-01-25T06:22:37.508Z,33.40
2023-01-25T06:27:39.050Z,35.15
2023-01-25T06:32:40.583Z,34.05
2023-01-25T06:37:42.296Z,38.60
2023-01-25T06:42:43.861Z,41.03
2023-01-25T06:47:46.749Z,41.88
2023-01-25T06:52:55.226Z,40.42
2023-01-25T06:58:00.556Z,38.67
2023-01-25T07:03:02.156Z,39.15
2023-01-25T07:08:03.871Z,38.75
2023-01-25T07:13:05.426Z,36.95
2023-01-25T07:18:15.959Z,33.00
2023-01-25T07:23:19.261Z,40.60
2023-01-25T07:28:20.865Z,29.65
2023-01-25T07:33:22.927Z,37.92
2023-01-25T07:38:24.498Z,38.22
2023-01-25T07:43:26.324Z,34.70
2023-01-25T07:48:28.255Z,40.40
2023-01-25T07:53:29.855Z,36.13
2023-01-25T07:58:31.393Z,35.75
2023-01-25T08:03:35.310Z,37.20
2023-01-25T08:08:43.865Z,36.83
2023-01-25T08:13:49.714Z,36.75
2023-01-25T08:18:56.649Z,36.53
2023-01-25T08:23:59.998Z,40.83
2023-01-25T08:29:02.316Z,33.95
2023-01-25T08:34:09.467Z,33.40
2023-01-25T08:39:12.393Z,35.13
2023-01-25T08:44:13.995Z,34.03
2023-01-25T08:49:15.950Z,35.25
2023-01-25T08:54:17.571Z,34.05
2023-01-25T08:59:19.173Z,35.47
2023-01-25T09:04:20.856Z,35.72
2023-01-25T09:09:22.618Z,32.30
2023-01-25T09:14:24.324Z,33.72
2023-01-25T09:19:25.943Z,35.03
2023-01-25T09:24:27.606Z,30.20
2023-01-25T09:29:29.190Z,34.20
2023-01-25T09:34:30.891Z,30.92
2023-01-25T09:39:32.700Z,34.40
2023-01-25T09:44:52.815Z,33.45
2023-01-25T09:50:25.198Z,31.70
2023-01-25T09:55:29.694Z,31.67
2023-01-25T10:00:42.238Z,33.17
2023-01-25T10:05:53.472Z,31.40
2023-01-25T10:11:02.227Z,29.65
2023-01-25T10:16:14.649Z,27.57
2023-01-25T10:21:26.843Z,27.77
2023-01-25T10:26:33.987Z,26.85
2023-01-25T10:31:44.374Z,25.95
2023-01-25T10:36:50.851Z,22.55
2023-01-25T10:42:04.960Z,22.45
2023-01-25T10:47:35.502Z,20.75
2023-01-25T10:52:37.954Z,21.88
2023-01-25T10:57:44.360Z,20.25
2023-01-25T11:02:47.905Z,21.20
2023-01-25T11:07:49.475Z,18.85
2023-01-25T11:13:17.307Z,18.60
2023-01-25T11:18:23.207Z,16.08
2023-01-25T11:23:26.224Z,19.25
2023-01-25T11:28:27.816Z,19.05
2023-01-25T11:33:30.642Z,18.27
2023-01-25T11:38:32.347Z,18.13
2023-01-25T11:43:51.208Z,19.27
2023-01-25T11:48:57.578Z,18.00
2023-01-25T11:54:46.665Z,17.33
2023-01-25T12:00:14.377Z,18.83
2023-01-25T12:05:31.184Z,19.02
2023-01-25T12:10:56.570Z,17.75
2023-01-25T12:16:22.433Z,21.20
2023-01-25T12:21:42.915Z,17.63
2023-01-25T12:27:04.956Z,18.13
2023-01-25T12:32:19.029Z,22.50
2023-01-25T12:37:28.834Z,20.08
2023-01-25T12:42:42.797Z,23.00
2023-01-25T12:47:50.947Z,24.52
2023-01-25T12:52:58.072Z,20.95
2023-01-25T12:58:36.932Z,19.58
2023-01-25T13:09:11.839Z,18.15
2023-01-25T13:14:16.109Z,20.70
2023-01-25T13:19:39.009Z,25.80
2023-01-25T13:25:02.580Z,23.63
2023-01-25T13:30:16.213Z,28.50
2023-01-25T13:35:37.834Z,23.13
2023-01-25T13:40:40.057Z,25.05
2023-01-25T13:45:42.513Z,24.88
2023-01-25T13:50:50.453Z,22.83
2023-01-25T13:55:56.996Z,23.70
2023-01-25T14:01:08.285Z,24.27
2023-01-25T14:06:41.160Z,22.08
2023-01-25T14:11:52.253Z,18.33
2023-01-25T14:17:04.382Z,20.23
2023-01-25T14:22:26.287Z,19.73
2023-01-25T14:27:28.202Z,22.15
2023-01-25T14:32:29.844Z,20.08
2023-01-25T14:37:31.528Z,21.25
2023-01-25T14:42:33.247Z,22.83
2023-01-25T14:47:35.669Z,21.30
2023-01-25T14:52:40.420Z,18.52
2023-01-25T14:57:42.366Z,20.05
2023-01-25T15:02:51.541Z,21.77
2023-01-25T15:07:54.455Z,21.30
2023-01-25T15:13:13.633Z,20.88
2023-01-25T15:18:47.815Z,21.63
2023-01-25T15:23:50.351Z,22.52
2023-01-25T15:28:54.942Z,20.85
2023-01-25T15:33:57.931Z,20.20
2023-01-25T15:39:00.023Z,20.02
2023-01-25T15:44:01.586Z,19.35
2023-01-25T15:49:05.816Z,19.58
2023-01-25T15:54:08.218Z,23.17
2023-01-25T15:59:17.447Z,20.77
2023-01-25T16:04:19.057Z,20.65
2023-01-25T16:09:23.489Z,20.88
2023-01-25T16:14:30.743Z,21.55
2023-01-25T16:19:32.972Z,21.45
2023-01-25T16:24:34.713Z,20.58
2023-01-25T16:29:36.413Z,20.83
2023-01-25T16:34:38.821Z,18.13
2023-01-25T16:39:40.473Z,19.80
2023-01-25T16:44:42.035Z,24.17
2023-01-25T16:49:43.729Z,23.90
2023-01-25T16:54:45.329Z,21.65
2023-01-25T16:59:46.918Z,22.05
2023-01-25T17:04:48.480Z,20.88
2023-01-25T17:09:50.008Z,27.65
2023-01-25T17:14:51.579Z,23.73
2023-01-25T17:19:53.287Z,26.27
2023-01-25T17:24:55.850Z,24.05
2023-01-25T17:29:57.454Z,24.63
2023-01-25T17:35:01.453Z,25.55
2023-01-25T17:40:03.670Z,27.95
2023-01-25T17:45:05.792Z,23.15
2023-01-25T17:50:08.511Z,25.10
2023-01-25T17:55:10.738Z,25.88
2023-01-25T18:00:13.091Z,25.73
2023-01-25T18:05:15.855Z,24.58
2023-01-25T18:10:17.656Z,26.52
2023-01-25T18:15:22.351Z,27.10
2023-01-25T18:20:23.945Z,26.23
2023-01-25T18:25:35.019Z,25.30
2023-01-25T18:30:42.997Z,25.00
2023-01-25T18:35:47.837Z,24.10
2023-01-25T18:40:49.445Z,25.85
2023-01-25T18:45:56.034Z,23.83
2023-01-25T18:51:19.845Z,27.10
2023-01-25T18:56:22.123Z,27.55
2023-01-25T19:01:24.783Z,27.08
2023-01-25T19:06:26.454Z,26.23
2023-01-25T19:11:28.099Z,24.17
2023-01-25T19:16:30.913Z,26.48
2023-01-25T19:21:33.734Z,26.25
2023-01-25T19:26:35.363Z,26.27
2023-01-25T19:31:37.426Z,27.98
2023-01-25T19:36:45.964Z,29.95
2023-01-25T19:41:47.538Z,27.63
2023-01-25T19:46:49.298Z,27.60
2023-01-25T19:51:55.090Z,28.63
2023-01-25T19:56:58.604Z,27.88
2023-01-25T20:02:00.475Z,33.65
2023-01-25T20:07:02.171Z,30.15
2023-01-25T20:12:09.247Z,31.27
2023-01-25T20:17:10.882Z,29.42
2023-01-25T20:22:12.600Z,27.73
2023-01-25T20:27:14.206Z,27.83
2023-01-25T20:32:31.546Z,29.98
2023-01-25T20:37:34.191Z,27.40
2023-01-25T20:42:36.626Z,27.08
2023-01-25T20:47:38.242Z,28.00
2023-01-25T20:52:39.949Z,28.25
2023-01-25T20:57:41.720Z,27.77
2023-01-25T21:02:43.342Z,28.05
2023-01-25T21:07:44.991Z,30.00
2023-01-25T21:12:46.578Z,29.40
2023-01-25T21:17:52.661Z,33.67
2023-01-25T21:22:54.339Z,28.88
2023-01-25T21:27:55.957Z,29.13
2023-01-25T21:32:57.647Z,27.70
2023-01-25T21:37:59.323Z,28.13
2023-01-25T21:43:00.884Z,31.05
2023-01-25T21:48:02.409Z,30.02
2023-01-25T21:53:03.963Z,28.67
2023-01-25T21:58:05.553Z,28.40
2023-01-25T22:03:07.130Z,31.30
2023-01-25T22:08:08.710Z,29.23
2023-01-25T22:13:14.644Z,33.42
2023-01-25T22:18:16.214Z,32.42
2023-01-25T22:23:17.778Z,33.40
2023-01-25T22:28:19.547Z,34.35
2023-01-25T22:33:21.582Z,37.83
2023-01-25T22:38:23.207Z,34.00
2023-01-25T22:43:24.844Z,36.38
2023-01-25T22:48:26.955Z,37.33
2023-01-25T22:53:29.251Z,35.40
2023-01-25T22:58:31.040Z,30.40
2023-01-25T23:03:32.971Z,30.73
2023-01-25T23:08:36.204Z,29.40
2023-01-25T23:13:39.823Z,31.73
2023-01-25T23:18:50.269Z,37.20
2023-01-25T23:23:51.915Z,33.35
2023-01-25T23:28:55.569Z,30.38
2023-01-25T23:33:59.717Z,35.33
2023-01-25T23:39:01.568Z,35.22
2023-01-25T23:44:03.115Z,32.45
2023-01-25T23:49:04.836Z,35.15
2023-01-25T23:54:06.389Z,32.78
2023-01-25T23:59:10.343Z,34.67
